Home > Products > Valid Products > TAF

000
FTUS43 KICT 190245 AAB
TAFICT
TAF AMD
KICT 190245Z 1903/1924 04013G22KT 6SM -TSRA OVC050CB
      TEMPO 1903/1906 VRB15G25KT
     FM190600 13010KT P6SM VCSH BKN080
     FM191000 VRB06KT P6SM VCSH SCT080 BKN120
     FM191500 32011KT P6SM SCT100
     FM192100 32013KT 6SM -SHRA VCTS SCT030CB OVC060=



000
FTUS43 KICT 190212 AAA
TAFHUT
TAF AMD
KHUT 190212Z 1902/1924 10013KT P6SM VCTS SCT030 BKN070CB
      TEMPO 1903/1906 VRB15G25KT 5SM -TSRA OVC035CB
     FM190800 VRB06KT P6SM VCSH SCT080 BKN120
     FM191600 31010KT P6SM SCT100
     FM192100 32014G23KT 5SM -SHRA OVC050=



000
FTUS43 KICT 190210 AAA
TAFSLN
TAF AMD
KSLN 190210Z 1902/1924 10013KT P6SM VCTS SCT035CB BKN070
      TEMPO 1902/1906 VRB15G25KT 6SM -SHRA OVC040
     FM191200 34008KT P6SM VCSH SCT020 OVC060
     FM192000 33011KT 6SM -SHRA OVC040=



000
FTUS43 KICT 182359 AAA
TAFICT
TAF AMD
KICT 182359Z 1900/1924 15010KT P6SM VCTS SCT040CB BKN060
      TEMPO 1900/1904 VRB15G25KT 2SM +TSRA BKN025CB
     FM190400 15006KT P6SM VCTS SCT030 BKN050CB
     FM191000 VRB06KT P6SM VCSH SCT080 BKN120
     FM191500 32011KT P6SM SCT100
     FM192100 32013KT 6SM -SHRA VCTS SCT030CB OVC060=



000
FTUS43 KICT 182340
TAFHUT
TAF
KHUT 182340Z 1900/1924 35010KT P6SM VCTS BKN035CB OVC060
      TEMPO 1900/1903 VRB15G25KT 5SM -TSRA OVC030CB
     FM190300 15009KT P6SM VCTS SCT030 BKN050CB
     FM190800 VRB06KT P6SM VCSH SCT080 BKN120
     FM191600 31010KT P6SM SCT100
     FM192100 32014G23KT 5SM -SHRA OVC050=



000
FTUS43 KICT 182340
TAFCNU
TAF
KCNU 182340Z 1900/1924 14008KT P6SM SCT040
     FM190700 VRB06KT P6SM VCTS BKN050CB
      TEMPO 1907/1911 VRB15G25KT 5SM -TSRA OVC035CB
     FM191200 VRB04KT 3SM BR VCTS OVC025CB
     FM191400 18008KT P6SM VCSH BKN050
     FM192100 32011KT 5SM -TSRA OVC035CB=



000
FTUS43 KICT 182340
TAFICT
TAF
KICT 182340Z 1900/1924 15010KT P6SM VCTS SCT040CB BKN060
      TEMPO 1901/1904 VRB15G25KT 4SM TSRA BKN025CB
     FM190400 15006KT P6SM VCTS SCT030 BKN050CB
     FM191000 VRB06KT P6SM VCSH SCT080 BKN120
     FM191500 32011KT P6SM SCT100
     FM192100 32013KT 6SM -SHRA VCTS SCT030CB OVC060=



000
FTUS43 KICT 182340
TAFRSL
TAF
KRSL 182340Z 1900/1924 14009KT P6SM VCTS SCT035CB BKN060
      TEMPO 1900/1904 6SM -SHRA BKN035
     FM190600 VRB06KT P6SM VCSH OVC080
     FM191200 33009KT P6SM VCSH SCT025 OVC060
     FM191800 33015G24KT 6SM -SHRA OVC040=



000
FTUS43 KICT 182340
TAFSLN
TAF
KSLN 182340Z 1900/1924 VRB06KT P6SM VCTS SCT040CB OVC080
     FM190100 15008KT P6SM VCTS SCT035CB BKN060
     FM191200 34008KT P6SM VCSH SCT020 OVC060
     FM192000 33011KT 6SM -SHRA OVC040=



000
FTUS43 KICT 182003 AAA
TAFHUT
TAF AMD
KHUT 182003Z 1820/1918 15012G22KT P6SM VCTS SCT040CB BKN070
     FM182200 16015G24KT P6SM VCTS SCT020 BKN035CB
      TEMPO 1822/1902 4SM TSRA BR BKN025CB
     FM190200 15006KT P6SM VCTS SCT020 BKN035CB
     FM191200 32005KT P6SM OVC100=



000
FTUS43 KICT 182003 AAA
TAFRSL
TAF AMD
KRSL 182003Z 1820/1918 17010KT P6SM VCTS SCT050CB BKN120
     FM182100 17012KT P6SM VCTS SCT035CB BKN050
      TEMPO 1821/1824 4SM TSRA BR BKN035CB
     FM190600 17006KT P6SM OVC100
     FM191200 29008KT P6SM VCSH SCT020 OVC060=



000
FTUS43 KICT 181726
TAFICT
TAF
KICT 181726Z 1818/1918 14010KT P6SM SCT030 BKN070
     FM182200 15010KT P6SM VCTS SCT020 BKN040CB
      TEMPO 1822/1902 4SM TSRA BR BKN025CB
     FM190200 15006KT P6SM VCTS SCT020 BKN035CB
     FM191200 32005KT P6SM OVC100=



000
FTUS43 KICT 181726
TAFRSL
TAF
KRSL 181726Z 1818/1918 17010KT P6SM SCT050 BKN120
     FM182100 17012KT P6SM VCTS SCT035CB BKN050
      TEMPO 1821/1824 4SM TSRA BR BKN035CB
     FM190600 17006KT P6SM OVC100
     FM191200 29008KT P6SM VCSH SCT020 OVC060=



000
FTUS43 KICT 181726
TAFSLN
TAF
KSLN 181726Z 1818/1918 16010KT P6SM SCT040 BKN080
     FM182200 15012KT P6SM VCTS SCT020 BKN035CB
     FM190600 17006KT P6SM OVC100
     FM191200 29008KT P6SM VCSH SCT020 OVC060=



000
FTUS43 KICT 181726
TAFCNU
TAF
KCNU 181726Z 1818/1918 14006KT P6SM SCT040
     FM190700 15005KT P6SM VCTS BKN050CB
     FM191200 15004KT P6SM OVC025
     FM191400 18003KT P6SM OVC050=



000
FTUS43 KICT 181726
TAFHUT
TAF
KHUT 181726Z 1818/1918 15012G22KT P6SM SCT040 BKN070
     FM182200 16015G24KT P6SM VCTS SCT020 BKN035CB
      TEMPO 1822/1902 4SM TSRA BR BKN025CB
     FM190200 15006KT P6SM VCTS SCT020 BKN035CB
     FM191200 32005KT P6SM OVC100=



000
FTUS43 KICT 181304 CCA
TAFRSL
TAF COR
KRSL 181304Z 1813/1912 VRB05KT P6SM OVC035
      TEMPO 1813/1814 BKN015
     FM181600 17010KT P6SM SCT050 BKN120
     FM182100 17012KT P6SM VCTS SCT035CB BKN050=



000
FTUS43 KICT 181245 AAA
TAFRSL
TAF AMD
KRSL 181245Z 1813/1912 VRB05KT P6SM OVC035
      TEMPO 1814/1815 BKN015
     FM181600 17010KT P6SM SCT050 BKN120
     FM182100 17012KT P6SM VCTS SCT035CB BKN050=



000
FTUS43 KICT 181245 AAA
TAFRSL
TAF AMD
KRSL 181245Z 1813/1912 VRB05KT P6SM OVC035
      TEMPO 1814/1815 BKN015
     FM181600 17010KT P6SM SCT050 BKN120
     FM182100 17012KT P6SM VCTS SCT035CB BKN050=



000
FTUS43 KICT 181124
TAFCNU
TAF
KCNU 181124Z 1812/1912 13005KT P6SM VCTS OVC040CB
      TEMPO 1812/1815 VRB15G25KT 2SM +TSRA BKN025CB OVC040
     FM181700 17006KT P6SM BKN040
     FM190700 15005KT P6SM VCTS BKN050CB=



000
FTUS43 KICT 181124
TAFICT
TAF
KICT 181124Z 1812/1912 VRB05KT P6SM FEW080 OVC250
     FM181600 16015G24KT P6SM SCT030 BKN070
     FM190100 15006KT P6SM VCTS SCT020 BKN035CB=



000
FTUS43 KICT 181124
TAFHUT
TAF
KHUT 181124Z 1812/1912 17005KT P6SM OVC080
     FM181600 15012KT P6SM SCT040 BKN070
     FM182200 16015G24KT P6SM VCTS SCT020 BKN035CB=



000
FTUS43 KICT 181124
TAFRSL
TAF
KRSL 181124Z 1812/1912 VRB05KT P6SM OVC035
     FM181600 17010KT P6SM SCT050 BKN120
     FM182100 17012KT P6SM VCTS SCT035CB BKN050=



000
FTUS43 KICT 181124
TAFSLN
TAF
KSLN 181124Z 1812/1912 VRB05KT P6SM FEW025 OVC070
     FM181600 16010KT P6SM SCT040 BKN080
     FM190000 15012KT P6SM VCTS SCT020 BKN035CB=



000
FTUS43 KICT 180823 AAA
TAFSLN
TAF AMD
KSLN 180823Z 1808/1906 14005KT P6SM VCTS SCT025 BKN050CB
      TEMPO 1809/1812 TSRA SCT015 OVC035CB
     FM181200 14007KT P6SM SCT020 BKN050
     FM181600 16015G24KT P6SM SCT030 BKN050
     FM190100 15006KT P6SM VCTS SCT020 BKN035CB=



000
FTUS43 KICT 180823 AAA
TAFSLN
TAF AMD
KSLN 180823Z 1808/1906 14005KT P6SM VCTS SCT025 BKN050CB
      TEMPO 1809/1812 TSRA SCT015 OVC035CB
     FM181200 14007KT P6SM SCT020 BKN050
     FM181600 16015G24KT P6SM SCT030 BKN050
     FM190100 15006KT P6SM VCTS SCT020 BKN035CB=



000
FTUS43 KICT 180753 AAA
TAFHUT
TAF AMD
KHUT 180753Z 1808/1906 12005KT P6SM VCTS SCT040CB OVC080
      TEMPO 1808/1811 TSRA BKN040CB OVC080
     FM181100 15006KT P6SM SCT030 BKN035
     FM181600 15014G22KT P6SM SCT035 BKN070
     FM182100 16015G24KT P6SM VCTS SCT020 BKN035CB=



000
FTUS43 KICT 180729 AAA
TAFRSL
TAF AMD
KRSL 180729Z 1807/1906 13006KT P6SM VCTS SCT035CB BKN150
      TEMPO 1807/1809 -TSRA OVC035CB
     FM181000 15007KT P6SM SCT020 BKN035
     FM181600 17014KT P6SM SCT040 BKN150
     FM182100 17014G24KT P6SM VCTS SCT035CB BKN050=



000
FTUS43 KICT 180729 AAA
TAFRSL
TAF AMD
KRSL 180729Z 1807/1906 13006KT P6SM VCTS SCT035CB BKN150
      TEMPO 1807/1809 -TSRA OVC035CB
     FM181000 15007KT P6SM SCT020 BKN035
     FM181600 17014KT P6SM SCT040 BKN150
     FM182100 17014G24KT P6SM VCTS SCT035CB BKN050=



000
FTUS43 KICT 180642 AAA
TAFICT
TAF AMD
KICT 180642Z 1807/1906 14005KT P6SM VCTS SCT050CB OVC150
      TEMPO 1807/1810 VRB15G25KT -TSRA OVC035CB
     FM181200 15007KT P6SM SCT020 BKN050
     FM181600 16015G24KT P6SM SCT030 BKN050
     FM190100 15006KT P6SM VCTS SCT020 BKN035CB=



000
FTUS43 KICT 180522
TAFRSL
TAF
KRSL 180522Z 1806/1906 13006KT P6SM VCTS SCT035CB BKN150
     FM181000 15007KT P6SM SCT020 BKN035
     FM181600 17014KT P6SM SCT040 BKN150
     FM182100 17014G24KT P6SM VCTS SCT035CB BKN050=



000
FTUS43 KICT 180522
TAFSLN
TAF
KSLN 180522Z 1806/1906 15005KT P6SM SCT035 BKN150
     FM180800 13005KT P6SM VCTS SCT020 BKN035CB
     FM181200 14007KT P6SM SCT020 BKN050
     FM181600 16015G24KT P6SM SCT030 BKN050
     FM190100 15006KT P6SM VCTS SCT020 BKN035CB=



000
FTUS43 KICT 180522
TAFCNU
TAF
KCNU 180522Z 1806/1906 13005KT P6SM SCT050 OVC150
     FM180900 15004KT P6SM VCTS SCT035 BKN060CB
      TEMPO 1810/1814 5SM -TSRA BKN035CB
     FM181500 17006KT P6SM SCT025 BKN035=



000
FTUS43 KICT 180522
TAFICT
TAF
KICT 180522Z 1806/1906 14005KT P6SM SCT050 OVC150
     FM180800 15005KT P6SM VCTS SCT020 BKN035CB
     FM181200 15007KT P6SM SCT020 BKN050
     FM181600 16015G24KT P6SM SCT030 BKN050
     FM190100 15006KT P6SM VCTS SCT020 BKN035CB=



000
FTUS43 KICT 180522
TAFHUT
TAF
KHUT 180522Z 1806/1906 14004KT P6SM SCT050 OVC150
     FM180800 15005KT P6SM VCTS SCT020 BKN035CB
     FM181100 15006KT P6SM SCT030 BKN035
     FM181600 15014G22KT P6SM SCT035 BKN070
     FM182100 16015G24KT P6SM VCTS SCT020 BKN035CB=



000
FTUS43 KICT 180409 AAA
TAFICT
TAF AMD
KICT 180409Z 1804/1824 15005KT P6SM SCT050 BKN150
     FM180600 16005KT P6SM VCTS SCT030 BKN080CB
     FM180800 16005KT 5SM -TSRA SCT020 BKN035CB
     FM181600 16015KT P6SM SCT020 BKN035=



000
FTUS43 KICT 180409 AAA
TAFICT
TAF AMD
KICT 180409Z 1804/1824 15005KT P6SM SCT050 BKN150
     FM180600 16005KT P6SM VCTS SCT030 BKN080CB
     FM180800 16005KT 5SM -TSRA SCT020 BKN035CB
     FM181600 16015KT P6SM SCT020 BKN035=



000
FTUS43 KICT 172332
TAFRSL
TAF
KRSL 172332Z 1800/1824 14008KT P6SM SCT035 BKN150
     FM180300 15005KT P6SM VCTS SCT025 BKN035CB
     FM180900 15007KT P6SM SCT020 BKN035
     FM181600 17014KT P6SM SCT040 BKN150=



000
FTUS43 KICT 172332
TAFICT
TAF
KICT 172332Z 1800/1824 16007KT P6SM SCT050 BKN150
     FM180500 16005KT P6SM VCTS SCT030 BKN080CB
     FM180800 16005KT 5SM -TSRA SCT020 BKN035CB
     FM181600 16015KT P6SM SCT020 BKN035=



000
FTUS43 KICT 172332
TAFCNU
TAF
KCNU 172332Z 1800/1824 15006KT P6SM SCT050 OVC150
     FM180800 VRB03KT P6SM VCTS BKN060CB
     FM181000 16007KT 5SM -TSRA BKN035CB OVC070
     FM181700 16010KT P6SM SCT025 BKN035=



000
FTUS43 KICT 172332
TAFHUT
TAF
KHUT 172332Z 1800/1824 14007KT P6SM SCT050 BKN150
     FM180400 16006KT P6SM VCTS SCT020 BKN035CB
     FM181400 17011KT P6SM SCT020 BKN035=



000
FTUS43 KICT 172332
TAFSLN
TAF
KSLN 172332Z 1800/1824 15007KT P6SM SCT035 BKN150
     FM180600 15006KT P6SM VCTS SCT030 BKN080CB
     FM180800 16005KT 5SM -TSRA SCT020 BKN035CB
     FM181600 16014KT P6SM SCT020 BKN035=



000
FTUS43 KICT 171735
TAFHUT
TAF
KHUT 171735Z 1718/1818 14010KT P6SM SCT015 SCT050 BKN250
     FM172100 15005KT P6SM VCTS BKN050CB
     FM180300 VRB03KT P6SM VCTS BKN080CB
     FM180900 VRB03KT P6SM BKN060
     FM181200 12007KT P6SM BKN025=



000
FTUS43 KICT 171735
TAFRSL
TAF
KRSL 171735Z 1718/1818 14010KT P6SM SCT035 BKN250
      TEMPO 1718/1722 BKN035
     FM172200 15005KT P6SM VCTS BKN050CB
     FM180300 VRB03KT P6SM BKN100
     FM181200 12007KT P6SM BKN035=



000
FTUS43 KICT 171735
TAFCNU
TAF
KCNU 171735Z 1718/1818 10003KT P6SM SCT050 OVC120
     FM172300 15005KT P6SM VCTS BKN050CB
     FM180600 VRB03KT P6SM BKN100
     FM180800 VRB03KT P6SM VCTS BKN060CB
     FM181200 12007KT P6SM BKN025=



000
FTUS43 KICT 171735
TAFSLN
TAF
KSLN 171735Z 1718/1818 VRB03KT P6SM SCT035 BKN250
     FM172200 15005KT P6SM VCTS BKN050CB
     FM180600 VRB05KT P6SM BKN100
     FM181200 12007KT P6SM BKN035=



000
FTUS43 KICT 171735
TAFICT
TAF
KICT 171735Z 1718/1818 07010KT P6SM SCT050 BKN250
     FM172100 12005KT P6SM VCTS BKN050CB
     FM180400 VRB03KT P6SM VCTS BKN080CB
     FM180900 VRB03KT P6SM BKN060
     FM181200 12007KT P6SM BKN025=



000
FTUS43 KICT 171735
TAFICT
TAF
KICT 171735Z 1718/1818 07010KT P6SM SCT050 BKN250
     FM172100 12005KT P6SM VCTS BKN050CB
     FM180400 VRB03KT P6SM VCTS BKN080CB
     FM180900 VRB03KT P6SM BKN060
     FM181200 12007KT P6SM BKN025=



000
FTUS43 KICT 171735
TAFCNU
TAF
KCNU 171735Z 1718/1818 10003KT P6SM SCT050 OVC120
     FM172300 15005KT P6SM VCTS BKN050CB
     FM180600 VRB03KT P6SM BKN100
     FM180800 VRB03KT P6SM VCTS BKN060CB
     FM181200 12007KT P6SM BKN025=



000
FTUS43 KICT 171735
TAFRSL
TAF
KRSL 171735Z 1718/1818 14010KT P6SM SCT035 BKN250
      TEMPO 1718/1722 BKN035
     FM172200 15005KT P6SM VCTS BKN050CB
     FM180300 VRB03KT P6SM BKN100
     FM181200 12007KT P6SM BKN035=



000
FTUS43 KICT 171735
TAFHUT
TAF
KHUT 171735Z 1718/1818 14010KT P6SM SCT015 SCT050 BKN250
     FM172100 15005KT P6SM VCTS BKN050CB
     FM180300 VRB03KT P6SM VCTS BKN080CB
     FM180900 VRB03KT P6SM BKN060
     FM181200 12007KT P6SM BKN025=



000
FTUS43 KICT 171735
TAFSLN
TAF
KSLN 171735Z 1718/1818 VRB03KT P6SM SCT035 BKN250
     FM172200 15005KT P6SM VCTS BKN050CB
     FM180600 VRB05KT P6SM BKN100
     FM181200 12007KT P6SM BKN035=



000
FTUS43 KICT 171636 AAA
TAFHUT
TAF AMD
KHUT 171636Z 1717/1812 14010KT P6SM SCT015 SCT050 BKN250
      TEMPO 1717/1719 BKN015
     FM171900 15005KT P6SM VCTS BKN050CB
     FM180300 VRB05KT P6SM BKN100=



000
FTUS43 KICT 171635 AAA
TAFICT
TAF AMD
KICT 171635Z 1717/1812 14010KT P6SM SCT050 BKN250
     FM172000 15005KT P6SM VCTS BKN050CB
     FM180400 VRB05KT P6SM BKN100=



000
FTUS43 KICT 171152
TAFCNU
TAF
KCNU 171152Z 1712/1812 10003KT P6SM VCSH SCT060 OVC250
      TEMPO 1712/1714 -TSRA OVC060CB
     FM172200 15005KT P6SM VCTS BKN050CB
     FM180600 VRB05KT P6SM BKN100=



000
FTUS43 KICT 171152
TAFHUT
TAF
KHUT 171152Z 1712/1812 VRB05KT P6SM -RA FEW025 OVC080
     FM171500 14010KT P6SM SCT050 BKN250
     FM171900 15005KT P6SM VCTS BKN050CB
     FM180300 VRB05KT P6SM BKN100=



000
FTUS43 KICT 171152
TAFSLN
TAF
KSLN 171152Z 1712/1812 34004KT P6SM VCTS OVC035CB
      TEMPO 1712/1715 5SM -TSRA OVC035CB
     FM171600 14010KT P6SM SCT050 BKN250
     FM172100 15005KT P6SM VCTS BKN050CB
     FM180600 VRB05KT P6SM BKN100=



000
FTUS43 KICT 171152
TAFICT
TAF
KICT 171152Z 1712/1812 VRB05KT P6SM VCTS SCT060CB OVC100
      TEMPO 1712/1714 -TSRA OVC060CB
     FM171600 14010KT P6SM SCT050 BKN250
     FM172000 15005KT P6SM VCTS BKN050CB
     FM180400 VRB05KT P6SM BKN100=



000
FTUS43 KICT 171152
TAFRSL
TAF
KRSL 171152Z 1712/1812 13010KT P6SM VCSH OVC090
     FM171600 14010KT P6SM SCT050 BKN250
     FM172000 15005KT P6SM VCTS BKN050CB
     FM180400 VRB05KT P6SM BKN100=



000
FTUS43 KICT 171007 AAB
TAFCNU
TAF AMD
KCNU 171007Z 1710/1806 09007KT P6SM SCT060 OVC250
     FM171200 10005KT 5SM BR BKN060
     FM171600 16006KT P6SM BKN025
     FM171800 16010KT P6SM SCT020 BKN035=



000
FTUS43 KICT 171007 AAB
TAFCNU
TAF AMD
KCNU 171007Z 1710/1806 09007KT P6SM SCT060 OVC250
     FM171200 10005KT 5SM BR BKN060
     FM171600 16006KT P6SM BKN025
     FM171800 16010KT P6SM SCT020 BKN035=



000
FTUS43 KICT 170805 AAA
TAFCNU
TAF AMD
KCNU 170805Z 1708/1806 09007KT P6SM SCT050 OVC250
     FM171000 10005KT 4SM BR BKN015 BKN250
     FM171600 16006KT P6SM BKN025
     FM171800 16010KT P6SM SCT020 BKN035=



000
FTUS43 KICT 170648 AAA
TAFSLN
TAF AMD
KSLN 170648Z 1707/1806 11005KT P6SM VCTS SCT020 BKN050CB
      TEMPO 1708/1712 5SM -TSRA BKN025CB
     FM171600 12014KT P6SM SCT020 BKN035
     FM180100 11006KT P6SM SCT030 BKN050=



000
FTUS43 KICT 170647 AAA
TAFICT
TAF AMD
KICT 170647Z 1707/1806 09007KT P6SM VCTS SCT030 BKN080CB
      TEMPO 1707/1711 VRB15G30KT 5SM -TSRA BKN025CB
     FM171600 14015G24KT P6SM SCT030 BKN050
     FM180100 15006KT P6SM SCT020 BKN035=



000
FTUS43 KICT 170647 AAA
TAFICT
TAF AMD
KICT 170647Z 1707/1806 09007KT P6SM VCTS SCT030 BKN080CB
      TEMPO 1707/1711 VRB15G30KT 5SM -TSRA BKN025CB
     FM171600 14015G24KT P6SM SCT030 BKN050
     FM180100 15006KT P6SM SCT020 BKN035=



000
FTUS43 KICT 170526
TAFHUT
TAF
KHUT 170526Z 1706/1806 09007KT P6SM VCTS SCT025 BKN035CB
      TEMPO 1706/1710 4SM -TSRA BKN020CB
     FM171100 11007KT 5SM BR SCT020 BKN035
     FM171600 14015G23KT P6SM SCT030 BKN035
     FM180100 15006KT P6SM SCT020 BKN035=



000
FTUS43 KICT 170526
TAFICT
TAF
KICT 170526Z 1706/1806 09008KT P6SM SCT040 BKN150
     FM170800 12006KT P6SM VCTS SCT030 BKN080CB
      TEMPO 1708/1712 5SM -TSRA BKN035CB
     FM171600 14015G24KT P6SM SCT030 BKN050
     FM180100 15006KT P6SM SCT020 BKN035=



000
FTUS43 KICT 170526
TAFCNU
TAF
KCNU 170526Z 1706/1806 09006KT P6SM SCT020 BKN200
     FM170800 10005KT 4SM BR BKN015 BKN250
      TEMPO 1709/1713 2SM BR BKN009
     FM171600 16006KT P6SM BKN025
     FM171800 16010KT P6SM SCT020 BKN035=



000
FTUS43 KICT 170526
TAFSLN
TAF
KSLN 170526Z 1706/1806 11005KT P6SM VCTS SCT020 BKN050CB
      TEMPO 1706/1710 5SM -TSRA BKN030CB
     FM171600 12014KT P6SM SCT020 BKN035
     FM180100 11006KT P6SM SCT030 BKN050=



000
FTUS43 KICT 170526
TAFRSL
TAF
KRSL 170526Z 1706/1806 11007KT P6SM VCTS SCT025 BKN035CB
      TEMPO 1706/1710 5SM -TSRA BKN035CB
     FM171600 14014KT P6SM SCT020 BKN035=



000
FTUS43 KICT 170526
TAFHUT
TAF
KHUT 170526Z 1706/1806 09007KT P6SM VCTS SCT025 BKN035CB
      TEMPO 1706/1710 4SM -TSRA BKN020CB
     FM171100 11007KT 5SM BR SCT020 BKN035
     FM171600 14015G23KT P6SM SCT030 BKN035
     FM180100 15006KT P6SM SCT020 BKN035=



000
FTUS43 KICT 170526
TAFCNU
TAF
KCNU 170526Z 1706/1806 09006KT P6SM SCT020 BKN200
     FM170800 10005KT 4SM BR BKN015 BKN250
      TEMPO 1709/1713 2SM BR BKN009
     FM171600 16006KT P6SM BKN025
     FM171800 16010KT P6SM SCT020 BKN035=



000
FTUS43 KICT 170526
TAFRSL
TAF
KRSL 170526Z 1706/1806 11007KT P6SM VCTS SCT025 BKN035CB
      TEMPO 1706/1710 5SM -TSRA BKN035CB
     FM171600 14014KT P6SM SCT020 BKN035=



000
FTUS43 KICT 170526
TAFICT
TAF
KICT 170526Z 1706/1806 09008KT P6SM SCT040 BKN150
     FM170800 12006KT P6SM VCTS SCT030 BKN080CB
      TEMPO 1708/1712 5SM -TSRA BKN035CB
     FM171600 14015G24KT P6SM SCT030 BKN050
     FM180100 15006KT P6SM SCT020 BKN035=



000
FTUS43 KICT 170526
TAFSLN
TAF
KSLN 170526Z 1706/1806 11005KT P6SM VCTS SCT020 BKN050CB
      TEMPO 1706/1710 5SM -TSRA BKN030CB
     FM171600 12014KT P6SM SCT020 BKN035
     FM180100 11006KT P6SM SCT030 BKN050=



000
FTUS43 KICT 170131 AAA
TAFICT
TAF AMD
KICT 170131Z 1702/1724 09010KT P6SM SCT035 BKN100
     FM170400 12006KT P6SM VCTS SCT030 BKN080CB
     FM170900 13007KT 5SM BR VCTS BKN012 OVC035CB
     FM171600 16011KT P6SM SCT030 BKN050=



000
FTUS43 KICT 162334
TAFCNU
TAF
KCNU 162334Z 1700/1724 10006KT P6SM SCT040 BKN200
     FM170800 10005KT 4SM BR BKN012 BKN300
     FM171000 11005KT 1SM BR BKN010
     FM171600 16006KT P6SM BKN025=



000
FTUS43 KICT 162334
TAFRSL
TAF
KRSL 162334Z 1700/1724 11015G22KT P6SM VCTS SCT040 BKN100CB
      TEMPO 1700/1704 4SM -TSRA BKN035CB
     FM170400 11010KT 5SM -TSRA OVC035CB
     FM171100 12010KT P6SM VCTS OVC025CB
     FM171600 16017G27KT P6SM SCT020 BKN035=



000
FTUS43 KICT 162334
TAFSLN
TAF
KSLN 162334Z 1700/1724 11005KT P6SM VCTS SCT020 BKN050CB
      TEMPO 1700/1703 27015G22KT 4SM -TSRA BKN030CB
     FM170900 12008KT P6SM VCTS BKN015 OVC050CB
     FM171600 14015G24KT P6SM SCT020 BKN035=



000
FTUS43 KICT 162334
TAFICT
TAF
KICT 162334Z 1700/1724 11010KT P6SM SCT035 BKN100
      TEMPO 1700/1701 34015G24KT
     FM170200 12006KT P6SM VCTS SCT030 BKN080CB
     FM170900 13007KT 5SM BR VCTS BKN012 OVC035CB
     FM171600 16011KT P6SM SCT030 BKN050=



000
FTUS43 KICT 162334
TAFHUT
TAF
KHUT 162334Z 1700/1724 12009KT P6SM VCTS SCT025 BKN035CB
      TEMPO 1700/1704 35018G25KT 5SM -TSRA BKN030CB
     FM170400 15013KT P6SM VCTS SCT025 OVC050CB
     FM170900 14007KT 5SM BR VCTS BKN020 OVC080CB=



000
FTUS43 KICT 162334
TAFHUT
TAF
KHUT 162334Z 1700/1724 12009KT P6SM VCTS SCT025 BKN035CB
      TEMPO 1700/1704 35018G25KT 5SM -TSRA BKN030CB
     FM170400 15013KT P6SM VCTS SCT025 OVC050CB
     FM170900 14007KT 5SM BR VCTS BKN020 OVC080CB=



000
FTUS43 KICT 162334
TAFRSL
TAF
KRSL 162334Z 1700/1724 11015G22KT P6SM VCTS SCT040 BKN100CB
      TEMPO 1700/1704 4SM -TSRA BKN035CB
     FM170400 11010KT 5SM -TSRA OVC035CB
     FM171100 12010KT P6SM VCTS OVC025CB
     FM171600 16017G27KT P6SM SCT020 BKN035=



000
FTUS43 KICT 162334
TAFCNU
TAF
KCNU 162334Z 1700/1724 10006KT P6SM SCT040 BKN200
     FM170800 10005KT 4SM BR BKN012 BKN300
     FM171000 11005KT 1SM BR BKN010
     FM171600 16006KT P6SM BKN025=



000
FTUS43 KICT 162334
TAFICT
TAF
KICT 162334Z 1700/1724 11010KT P6SM SCT035 BKN100
      TEMPO 1700/1701 34015G24KT
     FM170200 12006KT P6SM VCTS SCT030 BKN080CB
     FM170900 13007KT 5SM BR VCTS BKN012 OVC035CB
     FM171600 16011KT P6SM SCT030 BKN050=



000
FTUS43 KICT 162334
TAFSLN
TAF
KSLN 162334Z 1700/1724 11005KT P6SM VCTS SCT020 BKN050CB
      TEMPO 1700/1703 27015G22KT 4SM -TSRA BKN030CB
     FM170900 12008KT P6SM VCTS BKN015 OVC050CB
     FM171600 14015G24KT P6SM SCT020 BKN035=



000
FTUS43 KICT 162115 AAB
TAFSLN
TAF AMD
KSLN 162115Z 1621/1718 14005KT P6SM -RA VCTS SCT040CB BKN080
      TEMPO 1621/1701 3SM TSRA OVC035CB
     FM170100 15007KT 6SM -RA VCTS SCT025 OVC050CB
      TEMPO 1701/1704 3SM TSRA OVC025CB
     FM170400 11009KT P6SM VCTS OVC050CB=



000
FTUS43 KICT 162110 AAA
TAFRSL
TAF AMD
KRSL 162110Z 1621/1718 17017KT P6SM -RA VCTS SCT050CB OVC100
      TEMPO 1621/1624 VRB25G40KT 2SM +TSRA OVC035CB
     FM170000 15013KT P6SM VCTS BKN050CB
      TEMPO 1700/1704 3SM +TSRA OVC035CB
     FM170400 12007KT 5SM TSRA OVC035CB
     FM170800 14013KT 5SM TSRA OVC025CB=



000
FTUS43 KICT 162105 AAA
TAFHUT
TAF AMD
KHUT 162105Z 1621/1718 13009KT 6SM -TSRA SCT035 OVC050CB
      TEMPO 1621/1624 VRB35G52KT 2SM +TSRAGR OVC025CB
     FM170000 15013KT P6SM VCTS SCT025 OVC050CB
      TEMPO 1700/1704 VRB35G52KT 2SM +TSRAGR OVC025CB
     FM170400 15013KT P6SM VCTS OVC050CB
     FM170900 14007KT 5SM BR OVC025=



000
FTUS43 KICT 162105 AAA
TAFHUT
TAF AMD
KHUT 162105Z 1621/1718 13009KT 6SM -TSRA SCT035 OVC050CB
      TEMPO 1621/1624 VRB35G52KT 2SM +TSRAGR OVC025CB
     FM170000 15013KT P6SM VCTS SCT025 OVC050CB
      TEMPO 1700/1704 VRB35G52KT 2SM +TSRAGR OVC025CB
     FM170400 15013KT P6SM VCTS OVC050CB
     FM170900 14007KT 5SM BR OVC025=



000
FTUS43 KICT 161945 AAA
TAFCNU
TAF AMD
KCNU 161945Z 1620/1718 12007KT P6SM SCT040 BKN300
     FM170900 10005KT 3SM BR BKN300
     FM171100 11005KT 1SM BR SCT003 OVC250
     FM171500 VRB03KT 4SM BR BKN015=



000
FTUS43 KICT 161905 AAA
TAFSLN
TAF AMD
KSLN 161905Z 1619/1718 10007KT P6SM -SHRA SCT035 OVC150
     FM162100 10009KT P6SM -SHRA BKN035
     FM170200 11009KT P6SM SCT040 OVC250=



000
FTUS43 KICT 161740
TAFRSL
TAF
KRSL 161740Z 1618/1718 13009KT P6SM VCSH SCT070 BKN100
     FM162200 13013KT P6SM VCTS BKN040CB
     FM170300 12007KT 5SM TSRA OVC035CB
     FM170800 14013KT 5SM TSRA OVC025CB=



000
FTUS43 KICT 161740
TAFCNU
TAF
KCNU 161740Z 1618/1718 12013KT P6SM OVC013
     FM162000 13013KT P6SM OVC025
     FM162300 10009KT P6SM SCT035=



000
FTUS43 KICT 161740
TAFICT
TAF
KICT 161740Z 1618/1718 15013KT P6SM SCT035 BKN150
     FM162000 13009KT P6SM BKN035
     FM162300 12009KT P6SM SCT050 BKN300
     FM170900 13007KT P6SM BKN015=



000
FTUS43 KICT 161740
TAFHUT
TAF
KHUT 161740Z 1618/1718 15009KT P6SM VCTS SCT040CB BKN080
     FM162000 11009KT P6SM VCTS BKN035CB BKN300
     FM170900 14007KT 5SM BR OVC025=



000
FTUS43 KICT 161740
TAFSLN
TAF
KSLN 161740Z 1618/1718 16013KT P6SM VCSH SCT080
     FM170000 12013KT P6SM SCT080=



000
FTUS43 KICT 161657 AAB
TAFRSL
TAF AMD
KRSL 161657Z 1617/1712 13009KT P6SM VCSH BKN070
     FM162200 13013KT P6SM VCTS BKN040CB
     FM170300 12007KT 5SM TSRA OVC035CB
     FM170800 14013KT 5SM TSRA OVC025CB=



000
FTUS43 KICT 161657 AAB
TAFRSL
TAF AMD
KRSL 161657Z 1617/1712 13009KT P6SM VCSH BKN070
     FM162200 13013KT P6SM VCTS BKN040CB
     FM170300 12007KT 5SM TSRA OVC035CB
     FM170800 14013KT 5SM TSRA OVC025CB=



000
FTUS43 KICT 161650 AAB
TAFHUT
TAF AMD
KHUT 161650Z 1617/1712 15009KT P6SM VCTS SCT040CB BKN080
     FM162000 11009KT P6SM VCTS BKN035CB BKN300
     FM170900 14007KT 5SM BR OVC025=



000
FTUS43 KICT 161635 AAC
TAFICT
TAF AMD
KICT 161635Z 1617/1712 15013KT P6SM SCT150
     FM162000 13009KT P6SM BKN035
     FM162300 12009KT P6SM SCT050 BKN300
     FM170900 13007KT P6SM BKN015=



000
FTUS43 KICT 161635 AAC
TAFICT
TAF AMD
KICT 161635Z 1617/1712 15013KT P6SM SCT150
     FM162000 13009KT P6SM BKN035
     FM162300 12009KT P6SM SCT050 BKN300
     FM170900 13007KT P6SM BKN015=



000
FTUS43 KICT 161517 AAB
TAFSLN
TAF AMD
KSLN 161517Z 1615/1712 15013KT P6SM SCT020 OVC100
     FM161700 14013G22KT P6SM BKN035
     FM170100 12009KT P6SM SCT030 OVC100
      TEMPO 1708/1712 4SM BR OVC012=



000
FTUS43 KICT 161517 AAB
TAFSLN
TAF AMD
KSLN 161517Z 1615/1712 15013KT P6SM SCT020 OVC100
     FM161700 14013G22KT P6SM BKN035
     FM170100 12009KT P6SM SCT030 OVC100
      TEMPO 1708/1712 4SM BR OVC012=



000
FTUS43 KICT 161357 AAA
TAFSLN
TAF AMD
KSLN 161357Z 1614/1712 10009KT P6SM SCT010 OVC150
     FM161600 14013G22KT P6SM BKN035
     FM170100 12009KT P6SM SCT030 OVC100
      TEMPO 1708/1712 4SM BR OVC012=



000
FTUS43 KICT 161352 AAA
TAFHUT
TAF AMD
KHUT 161352Z 1614/1712 13009KT P6SM BKN150
     FM161600 15013G22KT P6SM BKN035
     FM170100 13009KT P6SM SCT030 OVC100
      TEMPO 1708/1712 4SM BR OVC012=



000
FTUS43 KICT 161352 AAA
TAFHUT
TAF AMD
KHUT 161352Z 1614/1712 13009KT P6SM BKN150
     FM161600 15013G22KT P6SM BKN035
     FM170100 13009KT P6SM SCT030 OVC100
      TEMPO 1708/1712 4SM BR OVC012=



000
FTUS43 KICT 161350 AAB
TAFICT
TAF AMD
KICT 161350Z 1614/1712 15007KT P6SM SCT150
     FM161600 15013G22KT P6SM BKN035
     FM170100 13009KT P6SM SCT030 OVC100
      TEMPO 1708/1712 4SM BR OVC015=



000
FTUS43 KICT 161345 AAA
TAFRSL
TAF AMD
KRSL 161345Z 1614/1712 10013KT P6SM OVC100
     FM161600 14013G19KT P6SM OVC025
     FM170000 11010KT P6SM OVC025
      TEMPO 1708/1712 5SM TSRA OVC015CB=



000
FTUS43 KICT 161335 AAA
TAFCNU
TAF AMD
KCNU 161335Z 1614/1712 10005KT 4SM BR OVC005
     FM161500 13013KT P6SM SCT020 BKN035
     FM170100 10007KT P6SM SCT030 BKN100
      TEMPO 1708/1712 4SM BR OVC015=



000
FTUS43 KICT 161335 AAA
TAFCNU
TAF AMD
KCNU 161335Z 1614/1712 10005KT 4SM BR OVC005
     FM161500 13013KT P6SM SCT020 BKN035
     FM170100 10007KT P6SM SCT030 BKN100
      TEMPO 1708/1712 4SM BR OVC015=



000
FTUS43 KICT 161135
TAFSLN
TAF
KSLN 161135Z 1612/1712 11009KT 6SM BR SCT010 BKN090
      TEMPO 1612/1614 4SM BR BKN010
     FM161600 14013G19KT P6SM SCT020 BKN035
     FM170100 12009KT P6SM SCT030 OVC100
      TEMPO 1708/1712 4SM BR OVC012=



000
FTUS43 KICT 161135
TAFICT
TAF
KICT 161135Z 1612/1712 15007KT P6SM SCT012 BKN100
      TEMPO 1613/1614 4SM BR BKN012
     FM161600 15014G20KT P6SM SCT020 BKN035
     FM170100 13009KT P6SM SCT030 OVC100
      TEMPO 1708/1712 4SM BR OVC015=



000
FTUS43 KICT 161135
TAFSLN
TAF
KSLN 161135Z 1612/1712 11009KT 6SM BR SCT010 BKN090
      TEMPO 1612/1614 4SM BR BKN010
     FM161600 14013G19KT P6SM SCT020 BKN035
     FM170100 12009KT P6SM SCT030 OVC100
      TEMPO 1708/1712 4SM BR OVC012=



000
FTUS43 KICT 161135
TAFHUT
TAF
KHUT 161135Z 1612/1712 15007KT 6SM BR SCT010 BKN090
      TEMPO 1612/1614 3SM BR BKN010
     FM161600 15014G20KT P6SM SCT020 BKN035
     FM170100 13009KT P6SM SCT030 OVC100
      TEMPO 1708/1712 4SM BR OVC012=



000
FTUS43 KICT 161135
TAFRSL
TAF
KRSL 161135Z 1612/1712 11010KT 6SM BR BKN012 OVC100
      TEMPO 1612/1614 3SM BR OVC006
     FM161600 14013G19KT P6SM OVC025
     FM170000 11010KT P6SM OVC025
      TEMPO 1708/1712 5SM TSRA OVC015CB=



000
FTUS43 KICT 161135
TAFICT
TAF
KICT 161135Z 1612/1712 15007KT P6SM SCT012 BKN100
      TEMPO 1613/1614 4SM BR BKN012
     FM161600 15014G20KT P6SM SCT020 BKN035
     FM170100 13009KT P6SM SCT030 OVC100
      TEMPO 1708/1712 4SM BR OVC015=



000
FTUS43 KICT 161135
TAFCNU
TAF
KCNU 161135Z 1612/1712 12006KT 2SM BR OVC006
      TEMPO 1612/1613 1/4SM FG VV001
     FM161500 13011KT P6SM SCT020 BKN035
     FM170100 10006KT P6SM SCT030 BKN100
      TEMPO 1708/1712 4SM BR OVC015=



000
FTUS43 KICT 161135
TAFHUT
TAF
KHUT 161135Z 1612/1712 15007KT 6SM BR SCT010 BKN090
      TEMPO 1612/1614 3SM BR BKN010
     FM161600 15014G20KT P6SM SCT020 BKN035
     FM170100 13009KT P6SM SCT030 OVC100
      TEMPO 1708/1712 4SM BR OVC012=



000
FTUS43 KICT 161135
TAFRSL
TAF
KRSL 161135Z 1612/1712 11010KT 6SM BR BKN012 OVC100
      TEMPO 1612/1614 3SM BR OVC006
     FM161600 14013G19KT P6SM OVC025
     FM170000 11010KT P6SM OVC025
      TEMPO 1708/1712 5SM TSRA OVC015CB=



000
FTUS43 KICT 161135
TAFCNU
TAF
KCNU 161135Z 1612/1712 12006KT 2SM BR OVC006
      TEMPO 1612/1613 1/4SM FG VV001
     FM161500 13011KT P6SM SCT020 BKN035
     FM170100 10006KT P6SM SCT030 BKN100
      TEMPO 1708/1712 4SM BR OVC015=



000
FTUS43 KICT 161023 AAA
TAFRSL
TAF AMD
KRSL 161023Z 1610/1706 15012KT 5SM BR SCT015 BKN120
      TEMPO 1611/1614 3SM BR OVC006
     FM161600 15014G22KT P6SM SCT020 BKN035
     FM170100 12010KT P6SM SCT030=



000
FTUS43 KICT 161023 AAA
TAFRSL
TAF AMD
KRSL 161023Z 1610/1706 15012KT 5SM BR SCT015 BKN120
      TEMPO 1611/1614 3SM BR OVC006
     FM161600 15014G22KT P6SM SCT020 BKN035
     FM170100 12010KT P6SM SCT030=



000
FTUS43 KICT 161021 AAA
TAFCNU
TAF AMD
KCNU 161021Z 1610/1706 12006KT 3SM BR BKN006
      TEMPO 1611/1613 1SM BR OVC003
     FM161500 15012KT P6SM SCT020 BKN035
     FM170100 09006KT P6SM SCT030=



000
FTUS43 KICT 161020 AAA
TAFHUT
TAF AMD
KHUT 161020Z 1610/1706 15007KT 5SM BR SCT010
      TEMPO 1612/1614 2SM BR OVC006
     FM161600 16016G25KT P6SM SCT020 BKN035
     FM170100 16010KT P6SM SCT030=



000
FTUS43 KICT 161018 AAA
TAFICT
TAF AMD
KICT 161018Z 1610/1706 14007KT 6SM BR SCT012
      TEMPO 1612/1614 3SM BR OVC008
     FM161600 16016G25KT P6SM SCT020 BKN035
     FM170100 15010KT P6SM SCT030=



000
FTUS43 KICT 161018 AAA
TAFICT
TAF AMD
KICT 161018Z 1610/1706 14007KT 6SM BR SCT012
      TEMPO 1612/1614 3SM BR OVC008
     FM161600 16016G25KT P6SM SCT020 BKN035
     FM170100 15010KT P6SM SCT030=



000
FTUS43 KICT 160522
TAFRSL
TAF
KRSL 160522Z 1606/1706 12013KT P6SM SCT030 BKN150
     FM160900 15009KT 4SM BR BKN015
      TEMPO 1609/1613 4SM BR OVC006
     FM161600 15014G22KT P6SM SCT020 BKN035
     FM170100 12010KT P6SM SCT030=



000
FTUS43 KICT 160522
TAFICT
TAF
KICT 160522Z 1606/1706 13010KT P6SM SCT030 BKN200
     FM160900 14007KT 4SM BR BKN014
      TEMPO 1609/1613 3SM BR OVC008
     FM161600 16016G25KT P6SM SCT020 BKN035
     FM170100 15010KT P6SM SCT030=



000
FTUS43 KICT 160522
TAFHUT
TAF
KHUT 160522Z 1606/1706 13012KT P6SM SCT030 BKN150
     FM160900 15007KT 4SM BR BKN012
      TEMPO 1609/1613 2SM BR OVC006
     FM161600 16016G25KT P6SM SCT020 BKN035
     FM170100 16010KT P6SM SCT030=



000
FTUS43 KICT 160522
TAFCNU
TAF
KCNU 160522Z 1606/1706 12006KT P6SM SCT030 BKN035
     FM160900 13006KT 4SM BR BKN015
      TEMPO 1609/1613 2SM BR OVC008
     FM161600 15012KT P6SM SCT020 BKN035
     FM170100 09006KT P6SM SCT030=



000
FTUS43 KICT 160522
TAFSLN
TAF
KSLN 160522Z 1606/1706 12011KT P6SM BKN035
     FM160900 14007KT 4SM BR BKN015
      TEMPO 1609/1613 4SM BR OVC009
     FM161600 16016G25KT P6SM SCT020 BKN035
     FM170100 15013KT P6SM SCT030=



000
FTUS43 KICT 160416 AAA
TAFSLN
TAF AMD
KSLN 160416Z 1604/1624 12011KT P6SM BKN035
     FM160900 11008KT 4SM BR BKN010
     FM161600 15012KT P6SM SCT015 BKN030=



000
FTUS43 KICT 160415 AAA
TAFHUT
TAF AMD
KHUT 160415Z 1604/1624 13012KT P6SM SCT030 BKN200
     FM160900 13006KT 4SM BR BKN012
     FM161600 16016G25KT P6SM SCT020 BKN035=



000
FTUS43 KICT 160414 AAA
TAFICT
TAF AMD
KICT 160414Z 1604/1624 13011KT P6SM SCT030 BKN200
     FM160900 13006KT 4SM BR BKN012
     FM161600 16016G25KT P6SM SCT020 BKN035=



000
FTUS43 KICT 160414 AAA
TAFICT
TAF AMD
KICT 160414Z 1604/1624 13011KT P6SM SCT030 BKN200
     FM160900 13006KT 4SM BR BKN012
     FM161600 16016G25KT P6SM SCT020 BKN035=



    US Dept of Commerce
    National Oceanic and Atmospheric Administration
    National Weather Service
    1325 East West Highway
    Silver Spring, MD 20910
    Page Author: NWS Internet Services Team
Disclaimer
Information Quality
Credits
Glossary
Privacy Policy
Freedom of Information Act (FOIA)
About Us
Career Opportunities